sensor_id;sensor_type;location;lat;lon;timestamp;temperature;humidity
5808;DHT22;2930;42.678;23.312;2023-04-19T00:01:30;11.30;85.90
5808;DHT22;2930;42.678;23.312;2023-04-19T00:04:05;11.30;85.80
5808;DHT22;2930;42.678;23.312;2023-04-19T00:06:32;11.20;86.00
5808;DHT22;2930;42.678;23.312;2023-04-19T00:08:58;11.30;86.30
5808;DHT22;2930;42.678;23.312;2023-04-19T00:11:24;11.30;86.30
5808;DHT22;2930;42.678;23.312;2023-04-19T00:13:50;11.30;86.20
5808;DHT22;2930;42.678;23.312;2023-04-19T00:16:16;11.30;86.10
5808;DHT22;2930;42.678;23.312;2023-04-19T00:18:41;11.20;86.20
5808;DHT22;2930;42.678;23.312;2023-04-19T00:21:07;11.20;86.20
5808;DHT22;2930;42.678;23.312;2023-04-19T00:23:33;11.20;86.20
5808;DHT22;2930;42.678;23.312;2023-04-19T00:26:02;11.20;86.10
5808;DHT22;2930;42.678;23.312;2023-04-19T00:28:28;11.10;86.10
5808;DHT22;2930;42.678;23.312;2023-04-19T00:30:54;11.20;86.20
5808;DHT22;2930;42.678;23.312;2023-04-19T00:33:19;11.10;86.40
5808;DHT22;2930;42.678;23.312;2023-04-19T00:35:45;11.10;86.60
5808;DHT22;2930;42.678;23.312;2023-04-19T00:38:11;10.90;87.10
5808;DHT22;2930;42.678;23.312;2023-04-19T00:40:37;10.80;87.40
5808;DHT22;2930;42.678;23.312;2023-04-19T00:43:02;10.80;87.40
5808;DHT22;2930;42.678;23.312;2023-04-19T00:45:28;10.60;87.90
5808;DHT22;2930;42.678;23.312;2023-04-19T00:47:55;10.50;88.60
5808;DHT22;2930;42.678;23.312;2023-04-19T00:50:21;10.40;89.00
5808;DHT22;2930;42.678;23.312;2023-04-19T00:52:47;10.30;89.30
5808;DHT22;2930;42.678;23.312;2023-04-19T00:55:13;10.20;89.40
5808;DHT22;2930;42.678;23.312;2023-04-19T00:57:39;10.20;89.60
5808;DHT22;2930;42.678;23.312;2023-04-19T01:00:05;10.20;89.80
5808;DHT22;2930;42.678;23.312;2023-04-19T01:02:34;10.10;90.10
5808;DHT22;2930;42.678;23.312;2023-04-19T01:05:00;10.10;90.20
5808;DHT22;2930;42.678;23.312;2023-04-19T01:07:26;10.10;90.30
5808;DHT22;2930;42.678;23.312;2023-04-19T01:09:52;10.00;90.40
5808;DHT22;2930;42.678;23.312;2023-04-19T01:12:18;9.90;90.60
5808;DHT22;2930;42.678;23.312;2023-04-19T01:14:44;9.80;91.10
5808;DHT22;2930;42.678;23.312;2023-04-19T01:17:10;9.80;91.50
5808;DHT22;2930;42.678;23.312;2023-04-19T01:19:37;9.70;91.90
5808;DHT22;2930;42.678;23.312;2023-04-19T01:22:03;9.60;92.30
5808;DHT22;2930;42.678;23.312;2023-04-19T01:24:30;9.70;92.40
5808;DHT22;2930;42.678;23.312;2023-04-19T01:26:56;9.80;92.30
5808;DHT22;2930;42.678;23.312;2023-04-19T01:29:22;9.80;92.30
5808;DHT22;2930;42.678;23.312;2023-04-19T01:31:48;9.90;91.90
5808;DHT22;2930;42.678;23.312;2023-04-19T01:34:18;9.90;91.70
5808;DHT22;2930;42.678;23.312;2023-04-19T01:36:45;9.90;91.90
5808;DHT22;2930;42.678;23.312;2023-04-19T01:39:10;9.90;91.90
5808;DHT22;2930;42.678;23.312;2023-04-19T01:41:36;9.90;92.00
5808;DHT22;2930;42.678;23.312;2023-04-19T01:44:02;9.70;92.50
5808;DHT22;2930;42.678;23.312;2023-04-19T01:46:28;9.70;92.90
5808;DHT22;2930;42.678;23.312;2023-04-19T01:48:53;9.60;93.30
5808;DHT22;2930;42.678;23.312;2023-04-19T01:51:19;9.70;93.20
5808;DHT22;2930;42.678;23.312;2023-04-19T01:53:46;9.70;93.20
5808;DHT22;2930;42.678;23.312;2023-04-19T01:56:17;9.70;93.10
5808;DHT22;2930;42.678;23.312;2023-04-19T01:58:42;9.50;93.70
5808;DHT22;2930;42.678;23.312;2023-04-19T02:01:08;9.50;94.00
5808;DHT22;2930;42.678;23.312;2023-04-19T02:03:37;9.50;94.10
5808;DHT22;2930;42.678;23.312;2023-04-19T02:06:03;9.30;94.40
5808;DHT22;2930;42.678;23.312;2023-04-19T02:08:28;9.20;94.90
5808;DHT22;2930;42.678;23.312;2023-04-19T02:10:54;9.20;95.20
5808;DHT22;2930;42.678;23.312;2023-04-19T02:13:20;9.10;95.50
5808;DHT22;2930;42.678;23.312;2023-04-19T02:15:46;9.10;95.60
5808;DHT22;2930;42.678;23.312;2023-04-19T02:18:11;9.10;95.60
5808;DHT22;2930;42.678;23.312;2023-04-19T02:20:38;9.10;95.80
5808;DHT22;2930;42.678;23.312;2023-04-19T02:23:03;9.10;95.60
5808;DHT22;2930;42.678;23.312;2023-04-19T02:25:29;9.10;95.70
5808;DHT22;2930;42.678;23.312;2023-04-19T02:27:55;9.00;96.00
5808;DHT22;2930;42.678;23.312;2023-04-19T02:30:21;9.00;96.00
5808;DHT22;2930;42.678;23.312;2023-04-19T02:32:47;8.90;96.10
5808;DHT22;2930;42.678;23.312;2023-04-19T02:35:13;8.90;96.30
5808;DHT22;2930;42.678;23.312;2023-04-19T02:37:39;8.90;96.50
5808;DHT22;2930;42.678;23.312;2023-04-19T02:40:05;8.90;96.40
5808;DHT22;2930;42.678;23.312;2023-04-19T02:42:33;8.90;96.40
5808;DHT22;2930;42.678;23.312;2023-04-19T02:44:59;8.80;96.60
5808;DHT22;2930;42.678;23.312;2023-04-19T02:47:25;8.90;96.50
5808;DHT22;2930;42.678;23.312;2023-04-19T02:50:00;8.90;96.50
5808;DHT22;2930;42.678;23.312;2023-04-19T02:52:26;8.90;96.10
5808;DHT22;2930;42.678;23.312;2023-04-19T02:54:52;8.80;96.30
5808;DHT22;2930;42.678;23.312;2023-04-19T02:57:17;8.80;96.50
5808;DHT22;2930;42.678;23.312;2023-04-19T02:59:43;8.80;96.40
5808;DHT22;2930;42.678;23.312;2023-04-19T03:02:09;8.80;96.40
5808;DHT22;2930;42.678;23.312;2023-04-19T03:04:34;8.80;96.40
5808;DHT22;2930;42.678;23.312;2023-04-19T03:07:00;8.80;96.40
5808;DHT22;2930;42.678;23.312;2023-04-19T03:09:26;8.80;96.50
5808;DHT22;2930;42.678;23.312;2023-04-19T03:11:52;8.70;96.60
5808;DHT22;2930;42.678;23.312;2023-04-19T03:14:18;8.70;96.60
5808;DHT22;2930;42.678;23.312;2023-04-19T03:16:43;8.70;96.70
5808;DHT22;2930;42.678;23.312;2023-04-19T03:19:09;8.70;96.80
5808;DHT22;2930;42.678;23.312;2023-04-19T03:21:35;8.70;96.60
5808;DHT22;2930;42.678;23.312;2023-04-19T03:24:00;8.80;96.20
5808;DHT22;2930;42.678;23.312;2023-04-19T03:26:29;8.90;96.00
5808;DHT22;2930;42.678;23.312;2023-04-19T03:28:55;8.80;96.10
5808;DHT22;2930;42.678;23.312;2023-04-19T03:31:21;8.80;96.20
5808;DHT22;2930;42.678;23.312;2023-04-19T03:33:46;8.70;96.10
5808;DHT22;2930;42.678;23.312;2023-04-19T03:36:12;8.70;96.10
5808;DHT22;2930;42.678;23.312;2023-04-19T03:38:38;8.70;96.30
5808;DHT22;2930;42.678;23.312;2023-04-19T03:41:09;8.70;96.10
5808;DHT22;2930;42.678;23.312;2023-04-19T03:43:42;8.60;96.30
5808;DHT22;2930;42.678;23.312;2023-04-19T03:46:07;8.60;96.60
5808;DHT22;2930;42.678;23.312;2023-04-19T03:48:34;8.50;96.70
5808;DHT22;2930;42.678;23.312;2023-04-19T03:51:00;8.50;96.80
5808;DHT22;2930;42.678;23.312;2023-04-19T03:53:25;8.50;96.90
5808;DHT22;2930;42.678;23.312;2023-04-19T03:55:51;8.50;97.00
5808;DHT22;2930;42.678;23.312;2023-04-19T03:58:17;8.50;96.90
5808;DHT22;2930;42.678;23.312;2023-04-19T04:00:42;8.50;96.90
5808;DHT22;2930;42.678;23.312;2023-04-19T04:03:08;8.50;96.90
5808;DHT22;2930;42.678;23.312;2023-04-19T04:05:34;8.50;97.20
5808;DHT22;2930;42.678;23.312;2023-04-19T04:07:59;8.60;97.00
5808;DHT22;2930;42.678;23.312;2023-04-19T04:10:26;8.60;96.90
5808;DHT22;2930;42.678;23.312;2023-04-19T04:12:51;8.60;97.00
5808;DHT22;2930;42.678;23.312;2023-04-19T04:15:17;8.60;96.90
5808;DHT22;2930;42.678;23.312;2023-04-19T04:17:42;8.50;97.00
5808;DHT22;2930;42.678;23.312;2023-04-19T04:20:08;8.50;97.00
5808;DHT22;2930;42.678;23.312;2023-04-19T04:22:40;8.50;96.90
5808;DHT22;2930;42.678;23.312;2023-04-19T04:25:06;8.50;97.00
5808;DHT22;2930;42.678;23.312;2023-04-19T04:27:32;8.50;97.00
5808;DHT22;2930;42.678;23.312;2023-04-19T04:29:58;8.60;96.80
5808;DHT22;2930;42.678;23.312;2023-04-19T04:32:26;8.60;96.60
5808;DHT22;2930;42.678;23.312;2023-04-19T04:34:52;8.60;96.70
5808;DHT22;2930;42.678;23.312;2023-04-19T04:37:17;8.70;96.30
5808;DHT22;2930;42.678;23.312;2023-04-19T04:39:43;8.70;96.40
5808;DHT22;2930;42.678;23.312;2023-04-19T04:42:09;8.70;96.40
5808;DHT22;2930;42.678;23.312;2023-04-19T04:44:35;8.80;96.10
5808;DHT22;2930;42.678;23.312;2023-04-19T04:47:01;8.80;95.90
5808;DHT22;2930;42.678;23.312;2023-04-19T04:49:28;8.70;96.20
5808;DHT22;2930;42.678;23.312;2023-04-19T04:51:54;8.70;96.40
5808;DHT22;2930;42.678;23.312;2023-04-19T04:54:20;8.60;96.50
5808;DHT22;2930;42.678;23.312;2023-04-19T04:56:46;8.50;96.80
5808;DHT22;2930;42.678;23.312;2023-04-19T04:59:11;8.50;97.00
5808;DHT22;2930;42.678;23.312;2023-04-19T05:01:37;8.50;97.20
5808;DHT22;2930;42.678;23.312;2023-04-19T05:04:03;8.50;97.20
5808;DHT22;2930;42.678;23.312;2023-04-19T05:06:28;8.50;97.20
5808;DHT22;2930;42.678;23.312;2023-04-19T05:08:54;8.40;97.20
5808;DHT22;2930;42.678;23.312;2023-04-19T05:11:20;8.50;97.20
5808;DHT22;2930;42.678;23.312;2023-04-19T05:13:45;8.60;97.20
5808;DHT22;2930;42.678;23.312;2023-04-19T05:16:11;8.60;97.00
5808;DHT22;2930;42.678;23.312;2023-04-19T05:18:37;8.50;97.20
5808;DHT22;2930;42.678;23.312;2023-04-19T05:21:02;8.60;97.20
5808;DHT22;2930;42.678;23.312;2023-04-19T05:23:28;8.60;97.00
5808;DHT22;2930;42.678;23.312;2023-04-19T05:25:54;8.50;97.20
5808;DHT22;2930;42.678;23.312;2023-04-19T05:28:19;8.60;97.20
5808;DHT22;2930;42.678;23.312;2023-04-19T05:30:45;8.60;97.00
5808;DHT22;2930;42.678;23.312;2023-04-19T05:33:11;8.60;96.90
5808;DHT22;2930;42.678;23.312;2023-04-19T05:35:36;8.60;97.20
5808;DHT22;2930;42.678;23.312;2023-04-19T05:38:02;8.60;97.20
5808;DHT22;2930;42.678;23.312;2023-04-19T05:40:28;8.60;97.20
5808;DHT22;2930;42.678;23.312;2023-04-19T05:42:54;8.70;97.20
5808;DHT22;2930;42.678;23.312;2023-04-19T05:45:20;8.80;96.80
5808;DHT22;2930;42.678;23.312;2023-04-19T05:47:55;8.90;96.50
5808;DHT22;2930;42.678;23.312;2023-04-19T05:50:20;8.90;96.30
5808;DHT22;2930;42.678;23.312;2023-04-19T05:52:46;8.90;96.30
5808;DHT22;2930;42.678;23.312;2023-04-19T05:55:12;8.90;96.00
5808;DHT22;2930;42.678;23.312;2023-04-19T05:57:38;9.00;95.70
5808;DHT22;2930;42.678;23.312;2023-04-19T06:00:04;9.00;96.00
5808;DHT22;2930;42.678;23.312;2023-04-19T06:02:29;9.00;96.10
5808;DHT22;2930;42.678;23.312;2023-04-19T06:04:55;9.00;96.00
5808;DHT22;2930;42.678;23.312;2023-04-19T06:07:22;9.00;96.10
5808;DHT22;2930;42.678;23.312;2023-04-19T06:09:48;9.10;96.00
5808;DHT22;2930;42.678;23.312;2023-04-19T06:12:14;9.10;95.90
5808;DHT22;2930;42.678;23.312;2023-04-19T06:14:39;9.20;95.80
5808;DHT22;2930;42.678;23.312;2023-04-19T06:17:05;9.30;95.10
5808;DHT22;2930;42.678;23.312;2023-04-19T06:19:31;9.40;94.90
5808;DHT22;2930;42.678;23.312;2023-04-19T06:21:58;9.60;94.80
5808;DHT22;2930;42.678;23.312;2023-04-19T06:24:25;9.60;93.90
5808;DHT22;2930;42.678;23.312;2023-04-19T06:26:50;9.60;93.70
5808;DHT22;2930;42.678;23.312;2023-04-19T06:29:16;9.70;93.70
5808;DHT22;2930;42.678;23.312;2023-04-19T06:31:45;9.80;93.20
5808;DHT22;2930;42.678;23.312;2023-04-19T06:34:11;9.80;92.90
5808;DHT22;2930;42.678;23.312;2023-04-19T06:36:37;10.00;92.70
5808;DHT22;2930;42.678;23.312;2023-04-19T06:41:47;10.40;91.80
5808;DHT22;2930;42.678;23.312;2023-04-19T06:44:12;10.50;90.80
5808;DHT22;2930;42.678;23.312;2023-04-19T06:46:38;10.60;90.20
5808;DHT22;2930;42.678;23.312;2023-04-19T06:49:13;10.70;90.10
5808;DHT22;2930;42.678;23.312;2023-04-19T06:51:39;10.80;89.70
5808;DHT22;2930;42.678;23.312;2023-04-19T06:54:05;10.80;89.60
5808;DHT22;2930;42.678;23.312;2023-04-19T06:56:40;10.90;89.50
5808;DHT22;2930;42.678;23.312;2023-04-19T06:59:06;10.90;88.80
5808;DHT22;2930;42.678;23.312;2023-04-19T07:01:32;11.00;88.70
5808;DHT22;2930;42.678;23.312;2023-04-19T08:25:50;11.40;86.40
5808;DHT22;2930;42.678;23.312;2023-04-19T08:28:16;11.60;86.10
5808;DHT22;2930;42.678;23.312;2023-04-19T08:30:42;11.80;86.00
5808;DHT22;2930;42.678;23.312;2023-04-19T08:33:08;11.80;85.50
5808;DHT22;2930;42.678;23.312;2023-04-19T08:35:36;11.80;85.50
5808;DHT22;2930;42.678;23.312;2023-04-19T08:38:02;12.00;85.30
5808;DHT22;2930;42.678;23.312;2023-04-19T08:40:30;12.20;85.00
5808;DHT22;2930;42.678;23.312;2023-04-19T08:42:56;12.40;84.10
5808;DHT22;2930;42.678;23.312;2023-04-19T08:45:40;12.60;83.40
5808;DHT22;2930;42.678;23.312;2023-04-19T08:48:08;12.70;82.50
5808;DHT22;2930;42.678;23.312;2023-04-19T08:50:37;12.70;82.30
5808;DHT22;2930;42.678;23.312;2023-04-19T08:53:05;12.90;82.20
5808;DHT22;2930;42.678;23.312;2023-04-19T08:55:31;13.00;81.30
5808;DHT22;2930;42.678;23.312;2023-04-19T08:57:57;13.30;80.70
5808;DHT22;2930;42.678;23.312;2023-04-19T09:00:24;13.30;80.50
5808;DHT22;2930;42.678;23.312;2023-04-19T09:02:50;13.20;80.50
5808;DHT22;2930;42.678;23.312;2023-04-19T09:05:18;13.30;80.10
5808;DHT22;2930;42.678;23.312;2023-04-19T09:07:44;13.20;80.00
5808;DHT22;2930;42.678;23.312;2023-04-19T09:10:13;13.10;80.50
5808;DHT22;2930;42.678;23.312;2023-04-19T09:12:39;12.80;81.20
5808;DHT22;2930;42.678;23.312;2023-04-19T09:15:07;12.90;81.10
5808;DHT22;2930;42.678;23.312;2023-04-19T09:17:37;12.90;80.90
5808;DHT22;2930;42.678;23.312;2023-04-19T09:20:04;13.20;80.80
5808;DHT22;2930;42.678;23.312;2023-04-19T09:22:31;13.50;79.60
5808;DHT22;2930;42.678;23.312;2023-04-19T09:24:58;13.80;78.30
5808;DHT22;2930;42.678;23.312;2023-04-19T09:27:29;14.30;77.30
5808;DHT22;2930;42.678;23.312;2023-04-19T09:29:58;14.90;75.20
5808;DHT22;2930;42.678;23.312;2023-04-19T09:32:24;15.30;74.40
5808;DHT22;2930;42.678;23.312;2023-04-19T09:34:54;15.80;74.40
5808;DHT22;2930;42.678;23.312;2023-04-19T09:37:20;16.30;72.70
5808;DHT22;2930;42.678;23.312;2023-04-19T09:39:47;16.40;71.70
5808;DHT22;2930;42.678;23.312;2023-04-19T09:42:12;16.80;71.70
5808;DHT22;2930;42.678;23.312;2023-04-19T09:44:38;17.50;69.70
5808;DHT22;2930;42.678;23.312;2023-04-19T09:47:26;17.90;68.70
5808;DHT22;2930;42.678;23.312;2023-04-19T09:50:07;18.50;67.40
5808;DHT22;2930;42.678;23.312;2023-04-19T09:52:34;19.00;65.10
5808;DHT22;2930;42.678;23.312;2023-04-19T09:55:02;19.00;65.20
5808;DHT22;2930;42.678;23.312;2023-04-19T09:57:32;19.00;64.60
5808;DHT22;2930;42.678;23.312;2023-04-19T09:59:59;19.30;64.40
5808;DHT22;2930;42.678;23.312;2023-04-19T10:02:29;19.70;64.40
5808;DHT22;2930;42.678;23.312;2023-04-19T10:04:57;19.80;62.60
5808;DHT22;2930;42.678;23.312;2023-04-19T10:07:23;19.60;62.90
5808;DHT22;2930;42.678;23.312;2023-04-19T10:09:50;19.60;64.00
5808;DHT22;2930;42.678;23.312;2023-04-19T10:12:19;20.20;62.80
5808;DHT22;2930;42.678;23.312;2023-04-19T10:14:46;21.00;61.50
5808;DHT22;2930;42.678;23.312;2023-04-19T10:17:12;20.90;61.40
5808;DHT22;2930;42.678;23.312;2023-04-19T10:19:39;20.90;62.20
5808;DHT22;2930;42.678;23.312;2023-04-19T10:22:05;21.20;61.70
5808;DHT22;2930;42.678;23.312;2023-04-19T10:24:33;21.90;60.80
5808;DHT22;2930;42.678;23.312;2023-04-19T10:27:06;22.60;59.60
5808;DHT22;2930;42.678;23.312;2023-04-19T10:32:17;22.30;58.30
5808;DHT22;2930;42.678;23.312;2023-04-19T10:34:44;22.00;58.90
5808;DHT22;2930;42.678;23.312;2023-04-19T10:37:14;22.20;58.50
5808;DHT22;2930;42.678;23.312;2023-04-19T10:39:41;22.50;58.20
5808;DHT22;2930;42.678;23.312;2023-04-19T10:42:07;22.90;56.80
5808;DHT22;2930;42.678;23.312;2023-04-19T10:44:32;23.10;57.30
5808;DHT22;2930;42.678;23.312;2023-04-19T10:46:58;23.40;55.80
5808;DHT22;2930;42.678;23.312;2023-04-19T10:49:27;23.80;56.90
5808;DHT22;2930;42.678;23.312;2023-04-19T10:51:52;24.40;55.00
5808;DHT22;2930;42.678;23.312;2023-04-19T10:54:39;24.40;54.50
5808;DHT22;2930;42.678;23.312;2023-04-19T10:57:08;24.90;54.40
5808;DHT22;2930;42.678;23.312;2023-04-19T10:59:36;25.20;53.00
5808;DHT22;2930;42.678;23.312;2023-04-19T11:04:57;24.10;55.00
5808;DHT22;2930;42.678;23.312;2023-04-19T11:07:23;24.40;53.70
5808;DHT22;2930;42.678;23.312;2023-04-19T11:09:49;24.90;53.60
5808;DHT22;2930;42.678;23.312;2023-04-19T11:12:19;25.40;52.10
5808;DHT22;2930;42.678;23.312;2023-04-19T11:14:57;25.40;51.50
5808;DHT22;2930;42.678;23.312;2023-04-19T11:17:28;25.30;51.80
5808;DHT22;2930;42.678;23.312;2023-04-19T11:19:57;24.30;52.90
5808;DHT22;2930;42.678;23.312;2023-04-19T11:22:32;23.40;54.50
5808;DHT22;2930;42.678;23.312;2023-04-19T11:25:15;23.00;54.20
5808;DHT22;2930;42.678;23.312;2023-04-19T11:27:46;22.70;54.20
5808;DHT22;2930;42.678;23.312;2023-04-19T11:30:17;23.20;53.30
5808;DHT22;2930;42.678;23.312;2023-04-19T11:33:02;23.70;53.00
5808;DHT22;2930;42.678;23.312;2023-04-19T11:35:28;24.40;52.40
5808;DHT22;2930;42.678;23.312;2023-04-19T11:37:55;24.90;52.20
5808;DHT22;2930;42.678;23.312;2023-04-19T11:40:22;25.30;52.00
5808;DHT22;2930;42.678;23.312;2023-04-19T11:42:58;25.40;50.80
5808;DHT22;2930;42.678;23.312;2023-04-19T11:45:32;25.50;51.00
5808;DHT22;2930;42.678;23.312;2023-04-19T11:47:59;25.80;51.00
5808;DHT22;2930;42.678;23.312;2023-04-19T11:50:38;26.00;51.30
5808;DHT22;2930;42.678;23.312;2023-04-19T11:53:23;26.60;50.10
5808;DHT22;2930;42.678;23.312;2023-04-19T11:55:51;26.00;49.20
5808;DHT22;2930;42.678;23.312;2023-04-19T12:01:03;25.20;50.20
5808;DHT22;2930;42.678;23.312;2023-04-19T12:03:31;24.70;51.20
5808;DHT22;2930;42.678;23.312;2023-04-19T12:06:01;24.70;51.50
5808;DHT22;2930;42.678;23.312;2023-04-19T12:08:37;25.20;50.40
5808;DHT22;2930;42.678;23.312;2023-04-19T12:11:05;25.20;50.10
5808;DHT22;2930;42.678;23.312;2023-04-19T12:13:31;25.60;50.10
5808;DHT22;2930;42.678;23.312;2023-04-19T12:15:58;26.10;48.90
5808;DHT22;2930;42.678;23.312;2023-04-19T12:18:56;25.90;49.00
5808;DHT22;2930;42.678;23.312;2023-04-19T12:21:29;25.60;48.40
5808;DHT22;2930;42.678;23.312;2023-04-19T12:23:57;25.10;49.20
5808;DHT22;2930;42.678;23.312;2023-04-19T12:26:24;25.50;49.00
5808;DHT22;2930;42.678;23.312;2023-04-19T12:28:50;25.00;49.70
5808;DHT22;2930;42.678;23.312;2023-04-19T12:31:16;24.70;49.60
5808;DHT22;2930;42.678;23.312;2023-04-19T12:33:41;24.30;50.30
5808;DHT22;2930;42.678;23.312;2023-04-19T12:36:07;23.90;51.10
5808;DHT22;2930;42.678;23.312;2023-04-19T12:38:33;24.50;51.90
5808;DHT22;2930;42.678;23.312;2023-04-19T12:40:58;24.10;52.10
5808;DHT22;2930;42.678;23.312;2023-04-19T12:43:25;24.30;53.30
5808;DHT22;2930;42.678;23.312;2023-04-19T12:45:51;24.90;50.90
5808;DHT22;2930;42.678;23.312;2023-04-19T12:48:16;24.50;51.50
5808;DHT22;2930;42.678;23.312;2023-04-19T12:50:42;24.60;51.70
5808;DHT22;2930;42.678;23.312;2023-04-19T12:53:07;24.80;51.00
5808;DHT22;2930;42.678;23.312;2023-04-19T12:55:33;25.40;50.90
5808;DHT22;2930;42.678;23.312;2023-04-19T12:57:59;25.90;50.40
5808;DHT22;2930;42.678;23.312;2023-04-19T13:00:25;24.70;51.20
5808;DHT22;2930;42.678;23.312;2023-04-19T13:02:51;23.90;52.50
5808;DHT22;2930;42.678;23.312;2023-04-19T13:05:16;21.90;56.90
5808;DHT22;2930;42.678;23.312;2023-04-19T13:07:42;21.60;58.40
5808;DHT22;2930;42.678;23.312;2023-04-19T13:10:08;21.10;60.10
5808;DHT22;2930;42.678;23.312;2023-04-19T13:12:35;20.80;60.60
5808;DHT22;2930;42.678;23.312;2023-04-19T13:15:01;20.60;60.70
5808;DHT22;2930;42.678;23.312;2023-04-19T13:17:26;20.20;60.50
5808;DHT22;2930;42.678;23.312;2023-04-19T13:19:52;20.30;61.30
5808;DHT22;2930;42.678;23.312;2023-04-19T13:22:18;20.70;61.00
5808;DHT22;2930;42.678;23.312;2023-04-19T13:24:43;20.80;60.40
5808;DHT22;2930;42.678;23.312;2023-04-19T13:27:09;20.60;60.80
5808;DHT22;2930;42.678;23.312;2023-04-19T13:29:35;20.30;61.10
5808;DHT22;2930;42.678;23.312;2023-04-19T13:32:01;20.10;61.50
5808;DHT22;2930;42.678;23.312;2023-04-19T13:34:27;19.70;62.60
5808;DHT22;2930;42.678;23.312;2023-04-19T13:36:52;19.40;62.40
5808;DHT22;2930;42.678;23.312;2023-04-19T13:39:18;19.20;63.10
5808;DHT22;2930;42.678;23.312;2023-04-19T13:41:44;19.00;64.20
5808;DHT22;2930;42.678;23.312;2023-04-19T13:44:09;18.80;65.00
5808;DHT22;2930;42.678;23.312;2023-04-19T13:46:35;18.70;65.80
5808;DHT22;2930;42.678;23.312;2023-04-19T13:49:01;18.60;66.30
5808;DHT22;2930;42.678;23.312;2023-04-19T13:51:26;18.40;66.40
5808;DHT22;2930;42.678;23.312;2023-04-19T13:53:53;18.20;67.00
5808;DHT22;2930;42.678;23.312;2023-04-19T13:56:18;18.00;67.30
5808;DHT22;2930;42.678;23.312;2023-04-19T13:58:44;18.00;67.20
5808;DHT22;2930;42.678;23.312;2023-04-19T14:01:10;17.90;67.80
5808;DHT22;2930;42.678;23.312;2023-04-19T14:03:36;17.80;67.70
5808;DHT22;2930;42.678;23.312;2023-04-19T14:06:02;17.70;67.50
5808;DHT22;2930;42.678;23.312;2023-04-19T14:08:27;17.70;67.60
5808;DHT22;2930;42.678;23.312;2023-04-19T14:10:53;17.70;67.30
5808;DHT22;2930;42.678;23.312;2023-04-19T14:13:18;17.70;67.20
5808;DHT22;2930;42.678;23.312;2023-04-19T14:15:44;17.70;67.70
5808;DHT22;2930;42.678;23.312;2023-04-19T14:18:10;17.70;67.40
5808;DHT22;2930;42.678;23.312;2023-04-19T14:20:36;17.70;67.10
5808;DHT22;2930;42.678;23.312;2023-04-19T14:23:02;17.90;66.90
5808;DHT22;2930;42.678;23.312;2023-04-19T14:25:28;18.20;65.80
5808;DHT22;2930;42.678;23.312;2023-04-19T14:27:53;18.30;65.50
5808;DHT22;2930;42.678;23.312;2023-04-19T14:30:19;18.40;65.80
5808;DHT22;2930;42.678;23.312;2023-04-19T14:32:45;18.30;66.70
5808;DHT22;2930;42.678;23.312;2023-04-19T14:35:11;18.30;67.30
5808;DHT22;2930;42.678;23.312;2023-04-19T14:37:37;18.20;67.70
5808;DHT22;2930;42.678;23.312;2023-04-19T14:40:03;18.10;68.10
5808;DHT22;2930;42.678;23.312;2023-04-19T14:42:29;18.00;68.20
5808;DHT22;2930;42.678;23.312;2023-04-19T14:44:57;17.90;68.00
5808;DHT22;2930;42.678;23.312;2023-04-19T14:47:22;17.70;68.70
5808;DHT22;2930;42.678;23.312;2023-04-19T14:49:48;17.60;69.30
5808;DHT22;2930;42.678;23.312;2023-04-19T14:52:14;17.50;69.60
5808;DHT22;2930;42.678;23.312;2023-04-19T14:54:40;17.30;69.30
5808;DHT22;2930;42.678;23.312;2023-04-19T14:57:06;17.30;69.10
5808;DHT22;2930;42.678;23.312;2023-04-19T14:59:32;17.20;69.80
5808;DHT22;2930;42.678;23.312;2023-04-19T15:01:58;17.10;70.30
5808;DHT22;2930;42.678;23.312;2023-04-19T15:04:23;17.00;70.80
5808;DHT22;2930;42.678;23.312;2023-04-19T15:06:49;17.00;71.10
5808;DHT22;2930;42.678;23.312;2023-04-19T15:09:15;16.90;72.30
5808;DHT22;2930;42.678;23.312;2023-04-19T15:11:40;16.80;73.40
5808;DHT22;2930;42.678;23.312;2023-04-19T15:14:06;16.80;74.30
5808;DHT22;2930;42.678;23.312;2023-04-19T15:16:32;16.80;74.80
5808;DHT22;2930;42.678;23.312;2023-04-19T15:18:57;16.80;74.60
5808;DHT22;2930;42.678;23.312;2023-04-19T15:21:23;16.90;74.80
5808;DHT22;2930;42.678;23.312;2023-04-19T15:23:49;16.90;75.60
5808;DHT22;2930;42.678;23.312;2023-04-19T15:26:15;16.70;76.90
5808;DHT22;2930;42.678;23.312;2023-04-19T15:28:41;16.60;77.50
5808;DHT22;2930;42.678;23.312;2023-04-19T15:31:07;16.40;77.20
5808;DHT22;2930;42.678;23.312;2023-04-19T15:33:35;16.20;78.00
5808;DHT22;2930;42.678;23.312;2023-04-19T15:36:01;16.10;79.70
5808;DHT22;2930;42.678;23.312;2023-04-19T15:38:29;15.90;79.60
5808;DHT22;2930;42.678;23.312;2023-04-19T15:40:56;15.80;79.90
5808;DHT22;2930;42.678;23.312;2023-04-19T15:43:23;15.80;81.00
5808;DHT22;2930;42.678;23.312;2023-04-19T15:45:49;15.90;80.30
5808;DHT22;2930;42.678;23.312;2023-04-19T15:48:15;16.20;79.50
5808;DHT22;2930;42.678;23.312;2023-04-19T15:50:41;16.30;79.80
5808;DHT22;2930;42.678;23.312;2023-04-19T15:53:07;16.40;78.80
5808;DHT22;2930;42.678;23.312;2023-04-19T15:55:33;16.50;79.60
5808;DHT22;2930;42.678;23.312;2023-04-19T15:58:01;16.70;79.60
5808;DHT22;2930;42.678;23.312;2023-04-19T16:00:27;16.80;79.70
5808;DHT22;2930;42.678;23.312;2023-04-19T16:02:52;16.80;79.10
5808;DHT22;2930;42.678;23.312;2023-04-19T16:05:18;16.90;78.50
5808;DHT22;2930;42.678;23.312;2023-04-19T16:07:45;16.90;78.40
5808;DHT22;2930;42.678;23.312;2023-04-19T16:10:12;16.90;78.30
5808;DHT22;2930;42.678;23.312;2023-04-19T16:12:38;16.90;78.20
5808;DHT22;2930;42.678;23.312;2023-04-19T16:15:04;16.80;77.60
5808;DHT22;2930;42.678;23.312;2023-04-19T16:17:30;16.60;77.20
5808;DHT22;2930;42.678;23.312;2023-04-19T16:19:56;16.40;77.40
5808;DHT22;2930;42.678;23.312;2023-04-19T16:22:22;16.30;78.40
5808;DHT22;2930;42.678;23.312;2023-04-19T16:24:48;16.30;78.40
5808;DHT22;2930;42.678;23.312;2023-04-19T16:27:14;16.20;78.40
5808;DHT22;2930;42.678;23.312;2023-04-19T16:29:40;16.00;77.50
5808;DHT22;2930;42.678;23.312;2023-04-19T16:32:06;15.80;78.20
5808;DHT22;2930;42.678;23.312;2023-04-19T16:34:32;15.70;79.70
5808;DHT22;2930;42.678;23.312;2023-04-19T16:36:58;15.60;80.70
5808;DHT22;2930;42.678;23.312;2023-04-19T16:39:23;15.60;80.60
5808;DHT22;2930;42.678;23.312;2023-04-19T16:41:49;15.50;80.10
5808;DHT22;2930;42.678;23.312;2023-04-19T16:44:15;15.40;79.90
5808;DHT22;2930;42.678;23.312;2023-04-19T16:46:41;15.40;80.30
5808;DHT22;2930;42.678;23.312;2023-04-19T16:49:07;15.30;80.20
5808;DHT22;2930;42.678;23.312;2023-04-19T16:51:33;15.10;79.40
5808;DHT22;2930;42.678;23.312;2023-04-19T16:53:58;14.90;79.30
5808;DHT22;2930;42.678;23.312;2023-04-19T16:56:24;14.70;79.70
5808;DHT22;2930;42.678;23.312;2023-04-19T16:58:50;14.60;80.60
5808;DHT22;2930;42.678;23.312;2023-04-19T17:01:16;14.50;81.00
5808;DHT22;2930;42.678;23.312;2023-04-19T17:03:42;14.40;82.00
5808;DHT22;2930;42.678;23.312;2023-04-19T17:06:08;14.30;82.60
5808;DHT22;2930;42.678;23.312;2023-04-19T17:08:34;14.20;82.60
5808;DHT22;2930;42.678;23.312;2023-04-19T17:11:00;14.10;82.60
5808;DHT22;2930;42.678;23.312;2023-04-19T17:13:26;14.00;83.60
5808;DHT22;2930;42.678;23.312;2023-04-19T17:15:52;14.00;82.30
5808;DHT22;2930;42.678;23.312;2023-04-19T17:18:17;13.90;82.50
5808;DHT22;2930;42.678;23.312;2023-04-19T17:20:43;13.70;82.00
5808;DHT22;2930;42.678;23.312;2023-04-19T17:23:09;13.40;80.30